Time;durP1;ratioP1;P1;durP2;ratioP2;P2;SDS_P1;SDS_P2;PMS_P1;PMS_P2;Temp;Humidity;BMP_temperature;BMP_pressure;BME280_temperature;BME280_humidity;BME280_pressure;Samples;Min_cycle;Max_cycle;Signal;HPM_P1;HPM_P2
2023/11/12 00:01:31;;;;;;;5.60;4.25;;;;;;;3.31;100.00;97505.78;6094171;19;20011;-74
2023/11/12 00:03:32;;;;;;;6.13;4.22;;;;;;;3.29;100.00;97510.00;6100370;19;20329;-74
2023/11/12 00:05:32;;;;;;;5.18;3.70;;;;;;;3.29;100.00;97505.34;6098975;19;20451;-74
2023/11/12 00:07:32;;;;;;;6.07;3.90;;;;;;;3.26;100.00;97500.59;6098956;19;20390;-74
2023/11/12 00:09:33;;;;;;;5.32;3.58;;;;;;;3.22;100.00;97509.81;6092657;19;20011;-74
2023/11/12 00:11:34;;;;;;;4.25;3.20;;;;;;;3.17;100.00;97508.16;6092893;19;20467;-74
2023/11/12 00:13:35;;;;;;;5.70;3.27;;;;;;;3.13;100.00;97496.34;6091447;19;20078;-74
2023/11/12 00:15:35;;;;;;;8.35;3.67;;;;;;;3.09;100.00;97498.22;6092839;19;20003;-74
2023/11/12 00:17:37;;;;;;;5.50;3.45;;;;;;;3.03;100.00;97503.13;6094022;19;20015;-74
2023/11/12 00:19:37;;;;;;;4.67;3.40;;;;;;;2.98;100.00;97497.94;6096592;19;20467;-74
2023/11/12 00:21:38;;;;;;;4.20;2.95;;;;;;;2.89;100.00;97499.25;6095416;19;20017;-74
2023/11/12 00:23:39;;;;;;;5.40;3.70;;;;;;;2.86;100.00;97489.03;6095328;19;20006;-74
2023/11/12 00:25:39;;;;;;;4.55;3.28;;;;;;;2.83;100.00;97495.19;6092457;19;20024;-74
2023/11/12 00:27:40;;;;;;;4.55;3.20;;;;;;;2.76;100.00;97493.06;6081567;19;21078;-74
2023/11/12 00:29:40;;;;;;;4.90;3.03;;;;;;;2.74;100.00;97495.38;6096429;19;20017;-74
2023/11/12 00:31:40;;;;;;;4.93;3.10;;;;;;;2.78;100.00;97493.50;6098836;19;20003;-73
2023/11/12 00:33:41;;;;;;;6.25;3.42;;;;;;;2.81;100.00;97490.06;6095539;19;20023;-74
2023/11/12 00:35:41;;;;;;;4.50;3.10;;;;;;;2.87;100.00;97487.88;6094990;19;20030;-74
2023/11/12 00:37:42;;;;;;;4.25;3.20;;;;;;;2.89;100.00;97493.78;6093407;19;20321;-74
2023/11/12 00:39:42;;;;;;;4.55;3.17;;;;;;;2.89;100.00;97491.03;6098555;19;20018;-74
2023/11/12 00:41:43;;;;;;;4.80;3.13;;;;;;;2.90;100.00;97490.72;6099019;19;20010;-74
2023/11/12 00:43:43;;;;;;;4.10;3.25;;;;;;;2.93;100.00;97500.13;6094294;19;20114;-73
2023/11/12 00:45:43;;;;;;;4.50;3.20;;;;;;;2.96;100.00;97491.22;6089040;19;20620;-74
2023/11/12 00:47:44;;;;;;;4.82;3.20;;;;;;;2.95;100.00;97490.44;6087056;19;20003;-74
2023/11/12 00:49:45;;;;;;;5.15;3.15;;;;;;;2.96;100.00;97494.75;6091118;19;20010;-74
2023/11/12 00:51:46;;;;;;;5.95;3.80;;;;;;;2.96;100.00;97491.22;6089514;19;20484;-74
2023/11/12 00:53:46;;;;;;;4.82;2.92;;;;;;;2.96;100.00;97492.03;6090979;19;20007;-74
2023/11/12 00:55:47;;;;;;;6.22;3.30;;;;;;;2.94;100.00;97488.06;6089536;19;20021;-74
2023/11/12 00:57:48;;;;;;;4.22;2.90;;;;;;;3.02;100.00;97487.88;6088387;19;20519;-73
2023/11/12 00:59:48;;;;;;;5.63;3.58;;;;;;;3.02;100.00;97493.34;6093304;19;20315;-74
2023/11/12 01:01:48;;;;;;;5.30;3.13;;;;;;;3.06;100.00;97488.78;6098260;19;20002;-73
2023/11/12 01:03:49;;;;;;;6.70;3.38;;;;;;;3.20;100.00;97487.53;6096719;19;20389;-73
2023/11/12 01:05:52;;;;;;;5.32;3.28;;;;;;;3.15;100.00;97493.28;6097958;19;20020;-73
2023/11/12 01:07:52;;;;;;;4.55;3.30;;;;;;;3.20;100.00;97485.59;6095643;19;20041;-74
2023/11/12 01:09:53;;;;;;;5.93;3.13;;;;;;;3.21;100.00;97494.56;6097644;19;20003;-73
2023/11/12 01:11:53;;;;;;;5.25;3.38;;;;;;;3.14;100.00;97486.19;6098348;19;20006;-73
2023/11/12 01:13:53;;;;;;;8.20;3.03;;;;;;;3.09;100.00;97479.88;6097950;19;19999;-74
2023/11/12 01:15:55;;;;;;;4.82;3.42;;;;;;;3.10;100.00;97491.59;6097799;19;20447;-74
2023/11/12 01:17:57;;;;;;;5.03;3.25;;;;;;;3.09;100.00;97492.75;6096609;19;20010;-73
2023/11/12 01:20:00;;;;;;;5.38;3.22;;;;;;;3.08;100.00;97496.63;6097595;19;20475;-74
2023/11/12 01:22:00;;;;;;;5.15;3.15;;;;;;;3.06;100.00;97490.69;6097783;19;19998;-73
2023/11/12 01:24:01;;;;;;;4.35;3.53;;;;;;;3.07;100.00;97486.84;6097431;19;20323;-73
2023/11/12 01:26:01;;;;;;;4.82;3.35;;;;;;;3.02;100.00;97490.63;6095311;19;20003;-74
2023/11/12 01:28:03;;;;;;;7.30;3.40;;;;;;;2.97;100.00;97493.59;6093763;19;20478;-73
2023/11/12 01:30:05;;;;;;;4.75;3.33;;;;;;;2.92;100.00;97496.63;6086632;19;20700;-74
2023/11/12 01:32:05;;;;;;;5.18;2.92;;;;;;;2.87;100.00;97485.16;6087718;19;20007;-74
2023/11/12 01:34:07;;;;;;;4.43;2.60;;;;;;;2.83;100.00;97484.28;6087793;19;20034;-73
2023/11/12 01:36:08;;;;;;;7.07;3.08;;;;;;;2.76;100.00;97490.34;6087335;19;20008;-74
2023/11/12 01:38:08;;;;;;;3.88;3.10;;;;;;;2.69;100.00;97490.94;6088387;19;19995;-73
2023/11/12 01:40:09;;;;;;;4.57;3.20;;;;;;;2.62;100.00;97482.56;6087341;19;20087;-73
2023/11/12 01:42:11;;;;;;;6.70;4.03;;;;;;;2.58;100.00;97481.69;6086318;19;21337;-74
2023/11/12 01:44:12;;;;;;;4.18;3.28;;;;;;;2.59;100.00;97474.28;6090298;19;19998;-74
2023/11/12 01:46:13;;;;;;;5.35;3.53;;;;;;;2.53;100.00;97474.53;6090187;19;20082;-74
2023/11/12 01:48:15;;;;;;;4.18;3.20;;;;;;;2.51;100.00;97479.56;6091379;19;20487;-74
2023/11/12 01:50:15;;;;;;;4.53;3.22;;;;;;;2.49;100.00;97478.31;6088758;19;20715;-74
2023/11/12 01:52:17;;;;;;;3.50;2.95;;;;;;;2.48;100.00;97476.72;6089143;19;20117;-74
2023/11/12 01:54:18;;;;;;;4.15;3.17;;;;;;;2.42;100.00;97472.66;6088672;19;20012;-74
2023/11/12 01:56:19;;;;;;;5.07;3.60;;;;;;;2.39;100.00;97476.06;6088294;19;19994;-74
2023/11/12 01:58:19;;;;;;;4.85;3.92;;;;;;;2.37;100.00;97478.38;6088506;19;20067;-74
2023/11/12 02:00:22;;;;;;;5.60;3.95;;;;;;;2.34;100.00;97482.59;6089128;19;20337;-74
2023/11/12 02:02:23;;;;;;;5.22;3.88;;;;;;;2.30;100.00;97483.63;6090273;19;20021;-73
2023/11/12 02:04:25;;;;;;;5.65;4.18;;;;;;;2.30;100.00;97481.69;6089588;19;20005;-73
2023/11/12 02:06:25;;;;;;;5.88;4.10;;;;;;;2.35;100.00;97484.19;6089361;19;20018;-73
2023/11/12 02:08:26;;;;;;;5.43;3.50;;;;;;;2.42;100.00;97486.31;6090226;19;20021;-74
2023/11/12 02:10:28;;;;;;;5.97;4.00;;;;;;;2.49;100.00;97487.31;6090440;19;20469;-74
2023/11/12 02:12:29;;;;;;;4.25;3.42;;;;;;;2.56;100.00;97488.63;6089948;19;20426;-74
2023/11/12 02:14:31;;;;;;;4.85;3.70;;;;;;;2.64;100.00;97491.19;6089914;19;20003;-74
2023/11/12 02:16:31;;;;;;;4.88;3.47;;;;;;;2.68;100.00;97489.34;6089435;19;20873;-74
2023/11/12 02:18:32;;;;;;;6.75;3.58;;;;;;;2.74;100.00;97489.91;6090938;19;20334;-73
2023/11/12 02:20:32;;;;;;;5.97;3.33;;;;;;;2.81;100.00;97490.06;6091087;19;20013;-74
2023/11/12 02:22:34;;;;;;;8.98;4.90;;;;;;;2.85;100.00;97488.22;6089428;19;20329;-74
2023/11/12 02:24:34;;;;;;;4.63;3.55;;;;;;;2.88;100.00;97494.94;6090735;19;20735;-73
2023/11/12 02:26:35;;;;;;;5.75;3.50;;;;;;;2.88;100.00;97498.44;6089532;19;20003;-74
2023/11/12 02:28:35;;;;;;;6.43;3.25;;;;;;;2.89;100.00;97488.31;6097813;19;20086;-73
2023/11/12 02:30:35;;;;;;;5.38;3.33;;;;;;;2.94;100.00;97501.72;6104949;19;20021;-74
2023/11/12 02:32:36;;;;;;;5.65;3.35;;;;;;;2.92;100.00;97493.09;6103945;19;20017;-74
2023/11/12 02:34:37;;;;;;;4.20;3.08;;;;;;;2.90;100.00;97490.72;6103654;19;20462;-73
2023/11/12 02:36:38;;;;;;;4.97;3.50;;;;;;;2.90;100.00;97487.97;6103684;19;20349;-74
2023/11/12 02:38:39;;;;;;;7.18;3.55;;;;;;;2.85;100.00;97487.44;6102444;19;20013;-74
2023/11/12 02:40:39;;;;;;;5.00;3.55;;;;;;;2.79;100.00;97492.34;6103987;19;20724;-74
2023/11/12 02:42:40;;;;;;;5.53;3.17;;;;;;;2.77;100.00;97489.19;6104306;19;20014;-74
2023/11/12 02:44:41;;;;;;;5.22;3.60;;;;;;;2.75;100.00;97488.75;6104743;19;20018;-74
2023/11/12 02:46:41;;;;;;;4.03;3.00;;;;;;;2.76;100.00;97491.13;6102719;19;20446;-74
2023/11/12 02:49:20;;;;;;;5.85;3.40;;;;;;;2.77;100.00;97494.66;6101305;19;20089;-73
2023/11/12 02:51:21;;;;;;;5.40;3.15;;;;;;;2.79;100.00;97495.09;6101653;19;20007;-74
2023/11/12 02:53:22;;;;;;;4.90;3.30;;;;;;;2.80;100.00;97488.47;6102840;19;20022;-74
2023/11/12 02:55:22;;;;;;;4.82;3.65;;;;;;;2.76;100.00;97491.13;6102664;19;20437;-74
2023/11/12 02:57:23;;;;;;;4.07;2.97;;;;;;;2.79;100.00;97489.63;6102805;19;20346;-73
2023/11/12 02:59:23;;;;;;;6.22;4.18;;;;;;;2.79;100.00;97492.34;6103039;19;20003;-73
2023/11/12 03:01:24;;;;;;;6.05;3.72;;;;;;;2.77;100.00;97497.38;6103202;19;20002;-74
2023/11/12 03:03:27;;;;;;;5.82;3.58;;;;;;;2.78;100.00;97482.59;6101967;19;20584;-73
2023/11/12 03:05:29;;;;;;;6.03;3.90;;;;;;;2.81;100.00;97490.88;6102449;19;20011;-74
2023/11/12 03:07:29;;;;;;;6.57;4.03;;;;;;;2.80;100.00;97483.00;6103119;19;20011;-74
2023/11/12 03:09:30;;;;;;;5.00;3.50;;;;;;;2.79;100.00;97484.97;6099939;19;20025;-74
2023/11/12 03:11:30;;;;;;;5.13;3.50;;;;;;;2.75;100.00;97484.09;6101838;19;20347;-74
2023/11/12 03:13:31;;;;;;;3.92;3.28;;;;;;;2.76;100.00;97482.16;6101881;19;20028;-74
2023/11/12 03:15:31;;;;;;;6.68;4.47;;;;;;;2.78;100.00;97486.09;6100019;19;20025;-73
2023/11/12 03:17:31;;;;;;;6.05;4.10;;;;;;;2.81;100.00;97488.16;6101674;19;20006;-74
2023/11/12 03:19:34;;;;;;;5.07;3.78;;;;;;;2.87;100.00;97476.94;6103030;19;20557;-73
2023/11/12 03:21:35;;;;;;;6.50;3.97;;;;;;;2.93;100.00;97473.59;6100920;19;20114;-74
2023/11/12 03:23:35;;;;;;;8.73;4.25;;;;;;;3.00;100.00;97473.78;6101457;19;20023;-73
2023/11/12 03:25:36;;;;;;;7.80;4.22;;;;;;;3.09;100.00;97473.63;6101147;19;20222;-74
2023/11/12 03:27:37;;;;;;;6.25;4.13;;;;;;;3.16;100.00;97473.78;6101796;19;20422;-74
2023/11/12 03:29:37;;;;;;;7.10;4.43;;;;;;;3.21;100.00;97473.50;6102420;19;20243;-74
2023/11/12 03:31:38;;;;;;;6.15;4.53;;;;;;;3.28;100.00;97473.69;6102134;19;20010;-74
2023/11/12 03:33:38;;;;;;;5.95;3.75;;;;;;;3.34;100.00;97468.75;6102594;19;20015;-74
2023/11/12 03:35:38;;;;;;;5.60;4.10;;;;;;;3.32;100.00;97463.63;6101712;19;20048;-74
2023/11/12 03:37:39;;;;;;;4.72;3.95;;;;;;;3.33;100.00;97461.69;6101614;19;20387;-73
2023/11/12 03:39:39;;;;;;;6.25;4.15;;;;;;;3.35;100.00;97467.59;6102799;19;20038;-73
2023/11/12 03:41:39;;;;;;;6.13;3.80;;;;;;;3.33;100.00;97457.00;6102278;19;20045;-74
2023/11/12 03:43:40;;;;;;;8.00;4.80;;;;;;;3.34;100.00;97455.88;6101484;19;20023;-74
2023/11/12 03:45:40;;;;;;;5.57;4.38;;;;;;;3.32;100.00;97455.44;6101786;19;20026;-73
2023/11/12 03:47:41;;;;;;;6.32;4.03;;;;;;;3.24;100.00;97456.41;6102106;19;20021;-73
2023/11/12 03:49:42;;;;;;;6.28;3.90;;;;;;;3.18;100.00;97455.09;6099793;19;20017;-73
2023/11/12 03:51:42;;;;;;;6.00;4.38;;;;;;;3.14;100.00;97467.06;6101486;19;20042;-73
2023/11/12 03:53:43;;;;;;;5.85;4.43;;;;;;;3.08;100.00;97464.63;6102558;19;20661;-73
2023/11/12 03:55:44;;;;;;;7.07;4.78;;;;;;;3.05;100.00;97464.53;6101524;19;20014;-73
2023/11/12 03:57:44;;;;;;;5.22;3.97;;;;;;;3.02;100.00;97468.75;6101257;19;20010;-74
2023/11/12 03:59:44;;;;;;;4.40;3.88;;;;;;;2.95;100.00;97463.09;6102522;19;20720;-73
2023/11/12 04:01:45;;;;;;;6.10;4.82;;;;;;;2.97;100.00;97468.22;6101096;19;20475;-73
2023/11/12 04:03:45;;;;;;;6.38;4.60;;;;;;;2.99;100.00;97474.16;6098926;19;20044;-74
2023/11/12 04:05:45;;;;;;;6.32;4.40;;;;;;;2.95;100.00;97468.56;6101172;19;20330;-73
2023/11/12 04:07:46;;;;;;;7.20;4.78;;;;;;;2.92;100.00;97469.28;6101823;19;20035;-73
2023/11/12 04:09:46;;;;;;;7.90;4.93;;;;;;;2.93;100.00;97472.81;6100477;19;20027;-74
2023/11/12 04:11:47;;;;;;;7.88;4.40;;;;;;;2.92;100.00;97468.50;6101856;19;20014;-74
2023/11/12 04:13:47;;;;;;;6.95;4.72;;;;;;;2.94;100.00;97479.88;6101968;19;20500;-74
2023/11/12 04:15:47;;;;;;;6.25;4.65;;;;;;;2.96;100.00;97477.56;6100753;19;20006;-74
2023/11/12 04:17:48;;;;;;;7.53;4.70;;;;;;;2.95;100.00;97474.03;6101996;19;20100;-73
2023/11/12 04:19:50;;;;;;;6.97;5.03;;;;;;;2.95;100.00;97467.78;6101801;19;20124;-74
2023/11/12 04:21:51;;;;;;;4.90;4.00;;;;;;;2.96;100.00;97475.63;6100938;19;20021;-73
2023/11/12 04:23:51;;;;;;;6.72;4.50;;;;;;;2.97;100.00;97476.41;6100932;19;20331;-74
2023/11/12 04:25:51;;;;;;;8.05;4.15;;;;;;;2.94;100.00;97477.91;6100970;19;20006;-74
2023/11/12 04:27:52;;;;;;;6.00;4.63;;;;;;;2.91;100.00;97475.13;6101366;19;19999;-74
2023/11/12 04:29:52;;;;;;;5.38;4.53;;;;;;;2.91;100.00;97486.03;6100916;19;20893;-74
2023/11/12 04:31:52;;;;;;;5.55;4.47;;;;;;;2.90;100.00;97482.53;6100765;19;20108;-74
2023/11/12 04:33:54;;;;;;;5.60;4.38;;;;;;;2.86;100.00;97480.84;6101185;19;19999;-74
2023/11/12 04:35:54;;;;;;;7.10;4.40;;;;;;;2.85;100.00;97481.97;6100044;19;20018;-74
2023/11/12 04:37:54;;;;;;;6.13;4.32;;;;;;;2.80;100.00;97483.00;6100671;19;20013;-74
2023/11/12 04:39:55;;;;;;;8.88;4.70;;;;;;;2.78;100.00;97477.13;6101927;19;20033;-74
2023/11/12 04:41:55;;;;;;;7.82;5.05;;;;;;;2.77;100.00;97489.19;6100759;19;20010;-74
2023/11/12 04:43:56;;;;;;;9.02;4.55;;;;;;;2.74;100.00;97484.44;6099153;19;20324;-73
2023/11/12 04:45:56;;;;;;;7.22;4.85;;;;;;;2.71;100.00;97485.13;6098961;19;20014;-74
2023/11/12 04:47:57;;;;;;;5.65;3.83;;;;;;;2.68;100.00;97483.09;6100936;19;20017;-73
2023/11/12 04:49:57;;;;;;;6.38;4.40;;;;;;;2.72;100.00;97495.69;6101314;19;20445;-74
2023/11/12 04:51:57;;;;;;;6.78;4.13;;;;;;;2.72;100.00;97481.25;6100002;19;20366;-73
2023/11/12 04:53:58;;;;;;;5.80;3.50;;;;;;;2.73;100.00;97489.13;6100736;19;20010;-74
2023/11/12 04:55:58;;;;;;;6.13;4.20;;;;;;;2.77;100.00;97483.72;6099306;19;20010;-74
2023/11/12 04:58:01;;;;;;;5.30;3.85;;;;;;;2.77;100.00;97483.72;6101044;19;20011;-73
2023/11/12 05:00:01;;;;;;;;;;;;;;;2.76;100.00;97493.06;6100187;19;20082;-74
2023/11/12 05:02:01;;;;;;;5.55;3.67;;;;;;;2.73;100.00;97483.66;6099210;19;19918;-73
2023/11/12 05:04:02;;;;;;;7.65;3.95;;;;;;;2.74;100.00;97481.72;6099235;19;20003;-73
2023/11/12 05:06:03;;;;;;;5.55;3.50;;;;;;;2.71;100.00;97483.19;6098537;19;20463;-73
2023/11/12 05:08:04;;;;;;;5.20;3.80;;;;;;;2.72;100.00;97484.78;6100541;19;20018;-74
2023/11/12 05:10:08;;;;;;;6.80;4.35;;;;;;;2.68;100.00;97478.44;6100453;19;20035;-73
2023/11/12 05:12:09;;;;;;;5.32;3.78;;;;;;;2.68;100.00;97494.03;6098876;19;20340;-74
2023/11/12 05:14:10;;;;;;;4.88;3.97;;;;;;;2.66;100.00;97490.84;6098919;19;20005;-73
2023/11/12 05:16:10;;;;;;;5.70;3.53;;;;;;;2.67;100.00;97492.44;6099643;19;20458;-73
2023/11/12 05:18:11;;;;;;;5.63;4.20;;;;;;;2.68;100.00;97485.84;6099544;19;20009;-73
2023/11/12 05:20:11;;;;;;;6.15;3.65;;;;;;;2.66;100.00;97488.91;6099402;19;20007;-73
2023/11/12 05:22:12;;;;;;;8.65;3.72;;;;;;;2.60;100.00;97484.84;6099225;19;20103;-74
2023/11/12 05:24:13;;;;;;;5.07;3.63;;;;;;;2.58;100.00;97489.88;6099244;19;20467;-75
2023/11/12 05:26:14;;;;;;;6.13;4.22;;;;;;;2.53;100.00;97484.66;6098816;19;20013;-75
2023/11/12 05:28:15;;;;;;;4.85;3.55;;;;;;;2.47;100.00;97481.38;6090874;19;20007;-75
2023/11/12 05:30:15;;;;;;;5.70;3.55;;;;;;;2.37;100.00;97476.44;6099955;19;20432;-75
2023/11/12 05:32:16;;;;;;;5.05;3.83;;;;;;;2.32;100.00;97481.34;6098812;19;20454;-75
2023/11/12 05:34:16;;;;;;;4.75;3.60;;;;;;;2.27;100.00;97485.13;6099035;19;20005;-75
2023/11/12 05:36:17;;;;;;;10.75;4.55;;;;;;;2.24;100.00;97488.56;6096994;19;20316;-75
2023/11/12 05:38:17;;;;;;;5.38;3.40;;;;;;;2.19;100.00;97480.59;6098999;19;20002;-75
2023/11/12 05:40:18;;;;;;;5.10;3.53;;;;;;;2.15;100.00;97475.06;6098905;19;19998;-74
2023/11/12 05:42:18;;;;;;;5.55;3.38;;;;;;;2.15;100.00;97485.97;6099089;19;20613;-75
2023/11/12 05:44:18;;;;;;;7.32;4.00;;;;;;;2.12;100.00;97489.38;6098612;19;20510;-75
2023/11/12 05:46:19;;;;;;;7.93;3.90;;;;;;;2.16;100.00;97484.84;6097289;19;20447;-75
2023/11/12 05:48:20;;;;;;;6.32;3.40;;;;;;;2.20;100.00;97482.97;6096326;19;20035;-75
2023/11/12 05:50:20;;;;;;;4.50;3.15;;;;;;;2.23;100.00;97492.41;6099062;19;20451;-74
2023/11/12 05:52:20;;;;;;;6.25;3.63;;;;;;;2.22;100.00;97488.88;6097733;19;20022;-74
2023/11/12 05:54:21;;;;;;;6.18;4.15;;;;;;;2.25;100.00;97490.16;6099198;19;20026;-74
2023/11/12 05:56:21;;;;;;;5.10;3.90;;;;;;;2.23;100.00;97490.50;6096899;19;20082;-75
2023/11/12 05:58:21;;;;;;;9.30;5.70;;;;;;;2.24;100.00;97492.06;6096992;19;20018;-75
2023/11/12 06:00:22;;;;;;;10.15;5.28;;;;;;;2.22;100.00;97493.53;6097935;19;20403;-74
2023/11/12 06:02:22;;;;;;;15.32;7.78;;;;;;;2.19;100.00;97488.78;6097883;19;20020;-74
2023/11/12 06:04:22;;;;;;;11.30;6.85;;;;;;;2.17;100.00;97493.81;6096089;19;20013;-74
2023/11/12 06:06:23;;;;;;;14.80;7.88;;;;;;;2.12;100.00;97497.56;6097523;19;20048;-74
2023/11/12 06:08:23;;;;;;;20.90;12.38;;;;;;;2.09;100.00;97492.81;6098439;19;20494;-74
2023/11/12 06:10:23;;;;;;;22.98;14.55;;;;;;;2.07;100.00;97491.56;6097872;19;20370;-74
2023/11/12 06:12:24;;;;;;;23.95;14.00;;;;;;;2.09;100.00;97502.94;6097996;19;20074;-74
2023/11/12 06:14:24;;;;;;;22.27;12.27;;;;;;;2.11;100.00;97506.09;6102310;19;20312;-75
2023/11/12 06:16:25;;;;;;;9.85;6.70;;;;;;;2.17;100.00;97510.19;6103667;19;20014;-75
2023/11/12 06:18:26;;;;;;;8.25;5.75;;;;;;;2.21;100.00;97503.66;6103627;19;20018;-74
2023/11/12 06:20:27;;;;;;;7.60;4.72;;;;;;;2.28;100.00;97510.47;6104106;19;20500;-74
2023/11/12 06:22:27;;;;;;;11.68;6.78;;;;;;;2.31;100.00;97510.56;6102711;19;20017;-74
2023/11/12 06:24:28;;;;;;;9.15;6.95;;;;;;;2.32;100.00;97511.34;6103068;19;20015;-75
2023/11/12 06:26:28;;;;;;;10.10;5.38;;;;;;;2.30;100.00;97505.47;6102557;19;20521;-75
2023/11/12 06:28:29;;;;;;;6.10;4.72;;;;;;;2.32;100.00;97512.19;6093867;19;20486;-75
2023/11/12 06:30:29;;;;;;;12.38;6.55;;;;;;;2.30;100.00;97511.72;6088107;19;20056;-75
2023/11/12 06:32:30;;;;;;;6.43;5.00;;;;;;;2.24;100.00;97519.38;6086415;19;20416;-75
2023/11/12 06:34:30;;;;;;;8.43;5.50;;;;;;;2.23;100.00;97514.25;6089272;19;20109;-75
2023/11/12 06:36:31;;;;;;;7.28;4.90;;;;;;;2.25;100.00;97515.50;6086774;19;20014;-75
2023/11/12 06:38:31;;;;;;;7.93;5.90;;;;;;;2.28;100.00;97518.66;6089885;19;20099;-75
2023/11/12 06:40:31;;;;;;;6.00;4.95;;;;;;;2.33;100.00;97519.22;6088472;19;20027;-74
2023/11/12 06:42:32;;;;;;;9.27;5.28;;;;;;;2.40;100.00;97524.06;6089707;19;21109;-75
2023/11/12 06:44:36;;;;;;;6.63;5.20;;;;;;;2.43;100.00;97524.19;6088734;19;20006;-74
2023/11/12 06:46:37;;;;;;;5.60;4.63;;;;;;;2.49;100.00;97522.00;6087729;19;20007;-74
2023/11/12 06:48:37;;;;;;;5.75;4.38;;;;;;;2.56;100.00;97530.38;6088056;19;20011;-75
2023/11/12 06:50:37;;;;;;;7.22;4.22;;;;;;;2.57;100.00;97533.91;6088572;19;21288;-74
2023/11/12 06:52:38;;;;;;;6.03;4.40;;;;;;;2.58;100.00;97536.31;6089006;19;20006;-74
2023/11/12 06:54:40;;;;;;;5.68;4.28;;;;;;;2.54;100.00;97525.25;6090031;19;20011;-75
2023/11/12 06:56:40;;;;;;;6.30;4.43;;;;;;;2.56;100.00;97527.63;6087109;19;20007;-75
2023/11/12 06:58:41;;;;;;;8.70;5.57;;;;;;;2.56;100.00;97535.03;6088061;19;20006;-75
2023/11/12 07:00:41;;;;;;;7.78;5.05;;;;;;;2.56;100.00;97538.56;6084037;19;20071;-75
2023/11/12 07:02:42;;;;;;;7.88;4.95;;;;;;;2.54;100.00;97540.84;6087323;19;20010;-75
2023/11/12 07:04:42;;;;;;;6.70;4.88;;;;;;;2.56;100.00;97537.78;6087919;19;20085;-74
2023/11/12 07:06:42;;;;;;;9.70;5.28;;;;;;;2.53;100.00;97531.88;6086420;19;20019;-75
2023/11/12 07:08:43;;;;;;;10.30;5.93;;;;;;;2.54;100.00;97533.47;6087582;19;20029;-74
2023/11/12 07:10:43;;;;;;;11.35;7.18;;;;;;;2.59;100.00;97540.63;6086524;19;20822;-75
2023/11/12 07:12:44;;;;;;;13.57;6.28;;;;;;;2.62;100.00;97530.91;6086604;19;20391;-75
2023/11/12 07:14:44;;;;;;;13.27;7.75;;;;;;;2.62;100.00;97537.19;6088778;19;20074;-75
2023/11/12 07:16:45;;;;;;;13.55;8.65;;;;;;;2.60;100.00;97534.00;6085650;19;20020;-75
2023/11/12 07:18:45;;;;;;;11.50;6.90;;;;;;;2.62;100.00;97539.13;6087365;19;20526;-75
2023/11/12 07:20:46;;;;;;;7.93;5.22;;;;;;;2.67;100.00;97541.59;6085490;19;20463;-74
2023/11/12 07:22:47;;;;;;;7.68;4.68;;;;;;;2.62;100.00;97542.63;6086284;19;20023;-75
2023/11/12 07:24:47;;;;;;;10.35;7.97;;;;;;;2.62;100.00;97550.84;6087556;19;20006;-73
2023/11/12 07:26:47;;;;;;;9.63;6.97;;;;;;;2.61;100.00;97551.19;6086609;19;20003;-75
2023/11/12 07:28:48;;;;;;;12.60;9.40;;;;;;;2.60;100.00;97553.13;6094889;19;20006;-73
2023/11/12 07:30:48;;;;;;;22.88;17.98;;;;;;;2.63;100.00;97549.69;6102268;19;20805;-74
2023/11/12 07:32:48;;;;;;;14.25;9.82;;;;;;;2.65;100.00;97552.06;6100039;19;20481;-75
2023/11/12 07:34:49;;;;;;;21.60;14.18;;;;;;;2.66;100.00;97546.28;6099540;19;20501;-75
2023/11/12 07:36:49;;;;;;;18.52;12.90;;;;;;;2.68;100.00;97543.97;6100701;19;20027;-75
2023/11/12 07:38:50;;;;;;;16.17;12.40;;;;;;;2.71;100.00;97551.47;6101031;19;20029;-75
2023/11/12 07:40:50;;;;;;;15.48;11.63;;;;;;;2.77;100.00;97547.34;6100392;19;20014;-75
2023/11/12 07:42:52;;;;;;;15.55;11.25;;;;;;;2.84;100.00;97554.94;6100955;19;20057;-75
2023/11/12 07:44:52;;;;;;;14.60;10.80;;;;;;;2.88;100.00;97555.03;6101995;19;20026;-75
2023/11/12 07:46:53;;;;;;;14.18;9.88;;;;;;;2.90;100.00;97560.97;6100199;19;20006;-75
2023/11/12 07:48:54;;;;;;;12.80;9.32;;;;;;;2.96;100.00;97557.59;6100283;19;20389;-75
2023/11/12 07:50:55;;;;;;;12.50;9.25;;;;;;;2.99;100.00;97561.59;6101814;19;20844;-75
2023/11/12 07:52:55;;;;;;;12.50;8.13;;;;;;;3.03;100.00;97562.47;6101100;19;20592;-75
2023/11/12 07:54:55;;;;;;;10.52;7.22;;;;;;;3.07;100.00;97569.63;6101660;19;20007;-75
2023/11/12 07:56:56;;;;;;;11.93;7.47;;;;;;;3.09;100.00;97561.88;6100603;19;20005;-75
2023/11/12 07:58:57;;;;;;;8.68;6.50;;;;;;;3.13;100.00;97561.94;6100845;19;20006;-75
2023/11/12 08:00:57;;;;;;;10.50;6.43;;;;;;;3.20;100.00;97564.84;6100329;19;20011;-74
2023/11/12 08:02:58;;;;;;;10.68;6.18;;;;;;;3.26;100.00;97570.88;6100251;19;20010;-75
2023/11/12 08:04:59;;;;;;;8.85;5.90;;;;;;;3.31;100.00;97582.34;6099618;19;20543;-75
2023/11/12 08:07:00;;;;;;;9.52;5.20;;;;;;;3.36;100.00;97573.06;6099065;19;20477;-75
2023/11/12 08:09:00;;;;;;;7.53;4.95;;;;;;;3.42;100.00;97577.13;6098906;19;20083;-74
2023/11/12 08:11:01;;;;;;;7.38;4.82;;;;;;;3.48;100.00;97574.94;6099589;19;20014;-75
2023/11/12 08:13:01;;;;;;;5.55;4.38;;;;;;;3.57;100.00;97570.88;6100718;19;20011;-75
2023/11/12 08:15:02;;;;;;;7.45;4.68;;;;;;;3.68;100.00;97576.59;6100185;19;20348;-74
2023/11/12 08:17:03;;;;;;;5.38;3.95;;;;;;;3.74;100.00;97583.38;6100160;19;20575;-75
2023/11/12 08:19:03;;;;;;;5.43;3.63;;;;;;;3.80;100.00;97578.41;6101815;19;20010;-75
2023/11/12 08:21:05;;;;;;;5.10;3.90;;;;;;;3.87;100.00;97579.38;6100173;19;20022;-75
2023/11/12 08:23:06;;;;;;;6.55;4.50;;;;;;;3.94;100.00;97579.56;6099024;19;20014;-75
2023/11/12 08:25:09;;;;;;;5.53;4.25;;;;;;;4.02;100.00;97572.31;6102029;19;20420;-75
2023/11/12 08:27:09;;;;;;;5.40;3.80;;;;;;;4.08;100.00;97570.09;6100081;19;20510;-75
2023/11/12 08:29:10;;;;;;;5.35;3.95;;;;;;;4.17;100.00;97576.94;6100228;19;20015;-75
2023/11/12 08:31:10;;;;;;;5.53;3.90;;;;;;;4.22;100.00;97576.69;6100989;19;20463;-74
2023/11/12 08:33:11;;;;;;;5.05;3.72;;;;;;;4.27;100.00;97581.06;6101100;19;20015;-75
2023/11/12 08:35:11;;;;;;;7.32;3.97;;;;;;;4.32;100.00;97588.22;6098397;19;20360;-74
2023/11/12 08:37:11;;;;;;;5.32;3.88;;;;;;;4.36;100.00;97572.63;6098442;19;20007;-75
2023/11/12 08:39:13;;;;;;;5.97;3.72;;;;;;;4.48;100.00;97584.25;6100543;19;20405;-74
2023/11/12 08:41:13;;;;;;;8.38;4.85;;;;;;;4.50;100.00;97587.44;6101328;19;20237;-74
2023/11/12 08:43:14;;;;;;;7.30;3.97;;;;;;;4.55;100.00;97585.53;6101029;19;20526;-74
2023/11/12 08:45:15;;;;;;;4.35;3.42;;;;;;;4.59;100.00;97581.75;6099154;19;20010;-74
2023/11/12 08:47:15;;;;;;;7.78;3.95;;;;;;;4.63;100.00;97582.59;6099285;19;20014;-74
2023/11/12 08:49:15;;;;;;;6.43;3.92;;;;;;;4.64;100.00;97586.94;6101263;19;20590;-74
2023/11/12 08:51:17;;;;;;;7.53;4.05;;;;;;;4.69;100.00;97586.63;6099625;19;20044;-74
2023/11/12 08:53:17;;;;;;;5.18;3.80;;;;;;;4.74;100.00;97591.03;6099273;19;20011;-74
2023/11/12 08:55:18;;;;;;;9.88;5.03;;;;;;;4.85;100.00;97591.25;6100933;19;20015;-75
2023/11/12 08:57:19;;;;;;;6.18;4.53;;;;;;;4.88;100.00;97601.47;6098352;19;20422;-74
2023/11/12 08:59:20;;;;;;;6.47;4.32;;;;;;;4.89;100.00;97594.88;6099492;19;20011;-74
2023/11/12 09:01:20;;;;;;;9.90;6.85;;;;;;;4.97;100.00;97600.13;6098354;19;20089;-74
2023/11/12 09:03:22;;;;;;;9.60;6.03;;;;;;;4.99;100.00;97603.28;6097790;19;20007;-74
2023/11/12 09:05:22;;;;;;;7.93;5.50;;;;;;;5.04;100.00;97605.72;6093679;19;20037;-75
2023/11/12 09:07:22;;;;;;;13.20;7.63;;;;;;;5.06;100.00;97602.63;6092198;19;20030;-75
2023/11/12 09:09:23;;;;;;;13.85;7.25;;;;;;;5.09;100.00;97607.38;6095491;19;20021;-74
2023/11/12 09:11:23;;;;;;;12.57;6.70;;;;;;;5.11;100.00;97605.06;6098893;19;20336;-75
2023/11/12 09:13:24;;;;;;;10.43;7.00;;;;;;;5.14;100.00;97606.31;6100209;19;20014;-74
2023/11/12 09:15:24;;;;;;;17.92;9.90;;;;;;;5.20;100.00;97613.06;6099010;19;20014;-74
2023/11/12 09:17:24;;;;;;;10.30;6.93;;;;;;;5.21;100.00;97614.66;6099365;19;19999;-74
2023/11/12 09:19:25;;;;;;;9.55;6.10;;;;;;;5.24;100.00;97614.72;6100169;19;20459;-74
2023/11/12 09:21:30;;;;;;;9.43;5.80;;;;;;;5.32;100.00;97618.41;6097929;19;20348;-74
2023/11/12 09:23:31;;;;;;;10.38;6.57;;;;;;;5.34;100.00;97613.34;6098606;19;20002;-74
2023/11/12 09:25:31;;;;;;;9.45;6.90;;;;;;;5.39;100.00;97620.47;6097953;19;20515;-75
2023/11/12 09:27:32;;;;;;;12.63;7.97;;;;;;;5.42;100.00;97617.78;6098669;19;20007;-74